Time;durP1;ratioP1;P1;durP2;ratioP2;P2;SDS_P1;SDS_P2;PMS_P1;PMS_P2;Temp;Humidity;BMP_temperature;BMP_pressure;BME280_temperature;BME280_humidity;BME280_pressure;Samples;Min_cycle;Max_cycle;Signal;HPM_P1;HPM_P2
2023/01/11 02:35:30;;;;;;;10.30;4.40;;;;;;;-4.52;58.16;101406.81;105830;1284;614453;-64
2023/01/11 02:38:15;;;;;;;22.20;7.50;;;;;;;-3.51;53.03;101407.11;107234;1263;127276;-63
2023/01/11 02:40:49;;;;;;;25.50;6.60;;;;;;;-3.05;52.08;101391.60;107326;1263;61271;-63
2023/01/11 02:46:31;;;;;;;25.10;7.20;;;;;;;-2.94;50.96;101393.57;107750;1256;72295;-64
2023/01/11 02:49:09;;;;;;;16.90;7.50;;;;;;;-2.66;50.47;101383.60;107852;1256;74752;-63
2023/01/11 02:51:38;;;;;;;12.40;6.20;;;;;;;-2.20;49.70;101386.11;107767;1257;63259;-64
2023/01/11 02:54:06;;;;;;;15.00;6.20;;;;;;;-2.31;49.21;101389.51;107777;1257;61758;-63
2023/01/11 02:56:39;;;;;;;9.70;4.90;;;;;;;-2.41;49.11;101395.84;107780;1261;74485;-64
2023/01/11 02:59:14;;;;;;;13.20;5.60;;;;;;;-2.75;49.32;101402.70;107880;1256;72438;-64
2023/01/11 03:01:50;;;;;;;18.00;7.60;;;;;;;-2.45;49.62;101402.06;107868;1256;72167;-63
2023/01/11 03:04:34;;;;;;;18.60;7.30;;;;;;;-2.37;48.60;101401.66;107867;1257;64288;-64
2023/01/11 03:07:24;;;;;;;15.60;6.20;;;;;;;-2.68;48.77;101402.09;107749;1256;61313;-65
2023/01/11 03:09:54;;;;;;;16.40;6.10;;;;;;;-2.39;48.57;101389.73;107953;1257;73218;-63
2023/01/11 03:12:55;;;;;;;14.70;6.50;;;;;;;-2.04;47.87;101385.28;107806;1256;72786;-64
2023/01/11 03:16:00;;;;;;;11.70;5.20;;;;;;;-2.15;47.70;101381.64;107853;1257;75024;-64
2023/01/11 03:18:47;;;;;;;11.80;4.90;;;;;;;-1.64;47.10;101377.30;107896;1257;63997;-64
2023/01/11 03:21:39;;;;;;;16.70;7.70;;;;;;;-1.54;46.75;101379.54;107800;1257;61183;-64
2023/01/11 03:24:19;;;;;;;19.10;6.60;;;;;;;-1.68;46.73;101385.63;107879;1256;72227;-64
2023/01/11 03:26:52;;;;;;;8.90;5.50;;;;;;;-1.55;47.29;101387.74;107794;1260;69864;-65
2023/01/11 03:29:29;;;;;;;16.50;7.20;;;;;;;-1.66;47.38;101395.30;107682;1257;75078;-65
2023/01/11 03:32:02;;;;;;;21.10;6.90;;;;;;;-1.69;46.93;101396.07;107640;1259;63636;-64
2023/01/11 03:34:47;;;;;;;10.90;4.90;;;;;;;-1.65;46.38;101392.08;107725;1259;61251;-63
2023/01/11 03:37:45;;;;;;;15.80;6.30;;;;;;;-1.86;48.13;101399.83;107556;1260;74592;-65
2023/01/11 03:40:20;;;;;;;14.60;6.40;;;;;;;-1.31;46.50;101398.52;107616;1259;72675;-63
2023/01/11 03:45:36;;;;;;;12.40;5.50;;;;;;;-1.14;45.99;101412.16;107530;1264;62079;-64
2023/01/11 03:48:04;;;;;;;11.10;4.50;;;;;;;-1.18;45.54;101403.42;107655;1259;60306;-65
2023/01/11 03:50:31;;;;;;;16.90;7.70;;;;;;;-1.33;45.42;101413.45;107637;1259;73691;-65
2023/01/11 03:52:57;;;;;;;20.60;6.40;;;;;;;-1.63;45.67;101420.21;107445;1260;69083;-65
2023/01/11 03:55:25;;;;;;;28.40;8.20;;;;;;;-1.34;44.97;101414.61;107483;1259;74952;-65
2023/01/11 03:57:55;;;;;;;11.80;5.80;;;;;;;-0.99;44.59;101410.05;107678;1259;63930;-64
2023/01/11 04:00:21;;;;;;;11.10;6.80;;;;;;;-1.14;45.10;101420.59;107681;1262;61856;-65
2023/01/11 04:02:48;;;;;;;20.50;7.60;;;;;;;-1.23;44.30;101414.45;107857;1257;73356;-64
2023/01/11 04:05:15;;;;;;;20.20;7.10;;;;;;;-1.04;44.14;101415.40;107867;1257;71296;-60
2023/01/11 04:07:42;;;;;;;22.10;7.10;;;;;;;-1.01;44.36;101421.00;107725;1255;74970;-62
2023/01/11 04:10:10;;;;;;;19.40;7.70;;;;;;;-0.86;44.73;101414.03;107891;1257;63771;-63
2023/01/11 04:12:36;;;;;;;17.20;6.80;;;;;;;-0.53;44.49;101417.25;107818;1259;61788;-64
2023/01/11 04:15:04;;;;;;;19.60;7.30;;;;;;;-0.95;45.07;101418.26;107793;1257;71778;-63
2023/01/11 04:17:31;;;;;;;27.50;7.50;;;;;;;-0.92;44.87;101424.90;107999;1257;72896;-65
2023/01/11 04:19:58;;;;;;;16.00;6.40;;;;;;;-0.80;44.37;101425.24;107872;1257;72188;-64
2023/01/11 04:22:25;;;;;;;17.00;7.60;;;;;;;-0.70;44.92;101434.86;107732;1257;63431;-64
2023/01/11 04:24:51;;;;;;;15.60;6.50;;;;;;;-0.59;43.95;101438.45;107828;1257;62201;-62
2023/01/11 04:27:18;;;;;;;22.00;6.90;;;;;;;-0.82;43.35;101427.79;107925;1256;75173;-64
2023/01/11 04:29:45;;;;;;;14.80;7.10;;;;;;;-0.63;42.95;101436.80;107799;1255;71438;-64
2023/01/11 04:32:12;;;;;;;18.90;6.20;;;;;;;-0.55;42.81;101430.97;107762;1257;73871;-63
2023/01/11 04:34:38;;;;;;;13.30;4.70;;;;;;;-0.75;43.07;101424.89;107731;1257;64548;-60
2023/01/11 04:37:05;;;;;;;19.50;8.50;;;;;;;-0.94;43.40;101420.84;107778;1256;61283;-63
2023/01/11 04:39:32;;;;;;;28.90;8.20;;;;;;;-0.22;42.55;101426.23;107685;1256;75109;-63
2023/01/11 04:42:17;;;;;;;17.60;7.10;;;;;;;-0.41;42.89;101434.14;107796;1257;72683;-65
2023/01/11 04:44:48;;;;;;;19.90;6.50;;;;;;;-0.66;42.65;101444.47;107748;1256;73986;-65
2023/01/11 04:47:16;;;;;;;20.70;6.30;;;;;;;-1.16;43.15;101448.47;107695;1257;64866;-65
2023/01/11 04:49:43;;;;;;;26.40;9.40;;;;;;;-1.03;44.16;101437.32;107890;1256;62694;-63
2023/01/11 04:52:10;;;;;;;18.40;7.90;;;;;;;-0.70;42.49;101437.11;107830;1260;75455;-63
2023/01/11 04:54:37;;;;;;;24.40;6.90;;;;;;;-0.64;42.30;101436.77;107878;1257;68668;-66
2023/01/11 04:57:05;;;;;;;17.20;7.90;;;;;;;-0.26;41.89;101433.36;107785;1257;75270;-64
2023/01/11 04:59:31;;;;;;;20.00;7.60;;;;;;;-0.67;41.85;101440.13;107877;1258;62216;-64
2023/01/11 05:01:58;;;;;;;16.30;6.10;;;;;;;-0.91;42.82;101451.48;107830;1260;60961;-65
2023/01/11 05:04:25;;;;;;;25.50;6.80;;;;;;;-0.80;42.94;101453.88;107756;1256;73799;-65
2023/01/11 05:06:52;;;;;;;23.80;7.70;;;;;;;-0.38;42.59;101452.89;107730;1256;70696;-62
2023/01/11 05:09:19;;;;;;;19.00;7.40;;;;;;;-0.34;42.88;101450.56;107737;1257;73713;-64
2023/01/11 05:11:46;;;;;;;21.30;7.90;;;;;;;-0.13;42.46;101456.52;107765;1257;64070;-64
2023/01/11 05:14:13;;;;;;;17.70;6.30;;;;;;;-0.46;41.93;101463.70;107765;1256;61851;-65
2023/01/11 05:16:40;;;;;;;17.30;7.30;;;;;;;-0.63;42.28;101446.95;107892;1256;73901;-64
2023/01/11 05:19:08;;;;;;;19.80;7.00;;;;;;;-0.29;42.48;101453.14;107779;1256;70717;-64
2023/01/11 05:21:38;;;;;;;10.70;6.00;;;;;;;-0.03;41.88;101456.79;107858;1256;74959;-64
2023/01/11 05:24:07;;;;;;;13.70;5.80;;;;;;;-0.01;41.74;101456.86;107799;1257;61835;-64
2023/01/11 05:26:36;;;;;;;9.30;5.40;;;;;;;-0.06;41.51;101464.47;107699;1256;61484;-64
2023/01/11 05:29:04;;;;;;;34.40;8.20;;;;;;;-0.08;41.79;101458.36;107780;1256;74391;-65
2023/01/11 05:31:32;;;;;;;19.10;7.40;;;;;;;0.32;41.85;101457.91;107785;1256;71072;-64
2023/01/11 05:33:59;;;;;;;16.10;6.10;;;;;;;0.12;41.70;101452.17;107853;1259;72829;-65
2023/01/11 05:36:26;;;;;;;17.10;7.30;;;;;;;0.50;40.93;101454.05;107999;1255;63220;-65
2023/01/11 05:38:54;;;;;;;18.50;5.40;;;;;;;0.19;40.76;101451.33;108064;1254;61384;-65
2023/01/11 05:41:24;;;;;;;13.00;6.00;;;;;;;-0.04;40.94;101446.40;107945;1255;73730;-65
2023/01/11 05:46:40;;;;;;;16.10;7.30;;;;;;;-0.20;40.82;101446.83;107898;1256;73435;-65
2023/01/11 05:49:07;;;;;;;18.60;6.40;;;;;;;-0.18;40.76;101456.71;107863;1254;62206;-65
2023/01/11 05:51:36;;;;;;;20.20;6.50;;;;;;;-0.42;40.90;101461.04;108045;1256;60633;-64
2023/01/11 05:54:05;;;;;;;24.30;8.50;;;;;;;-0.38;40.84;101461.01;108128;1256;72871;-64
2023/01/11 05:56:32;;;;;;;22.50;8.50;;;;;;;-0.25;40.56;101467.23;107977;1256;72734;-64
2023/01/11 05:58:58;;;;;;;19.60;8.10;;;;;;;-0.03;40.56;101465.05;108025;1256;73198;-64
2023/01/11 06:01:26;;;;;;;19.80;7.60;;;;;;;0.34;39.64;101472.30;107982;1257;63780;-64
2023/01/11 06:03:52;;;;;;;18.20;8.30;;;;;;;0.44;40.23;101470.12;107947;1255;62315;-64
2023/01/11 06:06:19;;;;;;;22.40;7.70;;;;;;;-0.05;40.15;101471.77;108025;1254;74674;-63
2023/01/11 06:08:47;;;;;;;20.50;7.50;;;;;;;0.17;40.69;101475.65;107990;1257;72505;-64
2023/01/11 06:11:14;;;;;;;18.00;7.00;;;;;;;0.07;40.36;101479.85;107978;1256;74602;-64
2023/01/11 06:13:41;;;;;;;15.20;6.70;;;;;;;0.14;40.19;101479.19;107909;1256;64106;-64
2023/01/11 06:16:16;;;;;;;24.50;8.50;;;;;;;0.41;40.01;101482.31;107950;1256;59521;-65
2023/01/11 06:18:45;;;;;;;23.80;7.10;;;;;;;0.25;40.19;101478.27;107957;1257;75254;-64
2023/01/11 06:21:12;;;;;;;20.60;7.60;;;;;;;0.13;39.78;101477.25;108013;1257;72589;-63
2023/01/11 06:23:41;;;;;;;24.40;8.70;;;;;;;0.25;39.58;101479.64;107978;1256;74521;-64
2023/01/11 10:32:44;;;;;;;37.30;14.10;;;;;;;-1.99;51.95;101405.37;105870;1280;613399;-63
2023/01/11 10:38:52;;;;;;;38.50;12.20;;;;;;;-0.13;44.85;101388.67;107370;1264;61675;-64
2023/01/11 10:41:32;;;;;;;22.90;7.60;;;;;;;0.32;45.35;101377.91;107419;1263;70659;-65
2023/01/11 10:44:23;;;;;;;11.50;6.30;;;;;;;0.51;44.46;101373.36;107309;1264;70812;-64
2023/01/11 10:46:51;;;;;;;39.00;14.60;;;;;;;0.52;43.51;101372.01;107314;1268;74857;-64
2023/01/11 10:49:24;;;;;;;71.00;18.50;;;;;;;0.39;42.78;101374.45;107382;1269;61601;-63
2023/01/11 10:51:52;;;;;;;25.20;8.80;;;;;;;0.38;43.54;101373.23;107412;1264;60290;-63
2023/01/11 10:54:22;;;;;;;22.50;9.50;;;;;;;0.50;42.76;101365.40;107317;1264;71492;-65
2023/01/11 10:57:07;;;;;;;16.00;7.20;;;;;;;0.56;43.08;101359.66;107314;1263;72072;-64
2023/01/11 11:00:14;;;;;;;48.60;15.20;;;;;;;0.41;42.74;101357.75;107372;1264;73842;-64
2023/01/11 11:02:59;;;;;;;27.90;10.10;;;;;;;0.17;42.83;101357.86;107651;1266;63463;-64
2023/01/11 11:05:51;;;;;;;24.30;9.60;;;;;;;0.50;42.68;101352.43;107547;1261;61370;-63
2023/01/11 11:08:50;;;;;;;31.30;10.40;;;;;;;0.79;42.49;101345.30;107494;1260;74554;-64
2023/01/11 11:11:16;;;;;;;80.50;25.20;;;;;;;0.77;41.93;101347.67;107509;1261;71631;-64
2023/01/11 11:13:53;;;;;;;28.30;10.80;;;;;;;0.22;42.62;101355.39;107439;1264;72638;-64
2023/01/11 11:16:23;;;;;;;23.40;10.00;;;;;;;0.47;42.56;101364.12;107425;1264;59932;-64
2023/01/11 11:18:51;;;;;;;26.60;10.30;;;;;;;0.83;41.74;101364.27;107433;1264;63559;-64
2023/01/11 11:21:27;;;;;;;48.00;14.60;;;;;;;0.87;41.81;101368.65;107519;1264;75053;-64
2023/01/11 11:23:58;;;;;;;67.10;20.40;;;;;;;0.69;42.23;101364.64;107476;1264;72728;-65
2023/01/11 11:26:28;;;;;;;31.50;9.40;;;;;;;1.18;42.75;101358.09;107453;1264;72706;-64
2023/01/11 11:29:03;;;;;;;29.10;10.90;;;;;;;1.55;42.54;101363.33;107454;1263;63490;-64
2023/01/11 11:31:30;;;;;;;26.80;9.30;;;;;;;1.80;40.99;101360.88;108051;1254;62327;-65
2023/01/11 11:33:57;;;;;;;27.50;11.10;;;;;;;1.52;40.56;101364.84;107955;1254;74980;-64
2023/01/11 11:36:24;;;;;;;35.40;10.30;;;;;;;1.35;40.25;101356.71;107736;1254;71505;-65
2023/01/11 11:39:06;;;;;;;24.90;10.40;;;;;;;1.23;40.71;101357.33;107781;1256;74814;-64
2023/01/11 11:41:45;;;;;;;29.20;10.50;;;;;;;1.06;40.74;101355.06;107742;1257;62384;-66
2023/01/11 11:44:30;;;;;;;31.30;10.20;;;;;;;1.11;41.44;101349.98;107966;1258;61486;-65
2023/01/11 11:47:01;;;;;;;29.40;10.90;;;;;;;1.46;42.47;101352.41;107835;1257;74012;-65
2023/01/11 11:49:32;;;;;;;25.00;10.90;;;;;;;1.66;41.63;101350.23;107885;1257;72733;-65
2023/01/11 11:51:59;;;;;;;27.40;9.90;;;;;;;1.49;40.52;101359.08;107860;1257;73850;-65
2023/01/11 11:54:34;;;;;;;26.60;10.00;;;;;;;1.40;40.51;101358.37;107926;1260;62946;-65
2023/01/11 11:57:25;;;;;;;28.90;11.00;;;;;;;1.36;40.60;101358.10;107818;1256;60727;-65
2023/01/11 12:00:01;;;;;;;22.30;9.00;;;;;;;1.53;39.94;101362.95;107871;1257;73371;-65
2023/01/11 12:02:30;;;;;;;18.50;8.10;;;;;;;1.48;40.04;101361.48;107992;1257;72522;-65
2023/01/11 12:04:59;;;;;;;21.10;9.20;;;;;;;1.51;40.10;101357.54;107946;1257;74037;-65
2023/01/11 12:07:33;;;;;;;30.10;10.20;;;;;;;1.52;40.19;101358.44;107872;1260;60149;-65
2023/01/11 12:10:14;;;;;;;26.00;8.80;;;;;;;1.35;40.26;101350.64;107928;1257;62376;-64
2023/01/11 12:12:58;;;;;;;26.00;11.90;;;;;;;1.55;40.36;101355.20;107979;1257;72643;-65
2023/01/11 12:15:34;;;;;;;25.10;9.90;;;;;;;1.37;41.47;101357.27;108050;1257;69393;-65
2023/01/11 12:18:24;;;;;;;38.80;14.00;;;;;;;1.64;40.55;101360.39;107990;1260;70496;-66
2023/01/11 12:20:51;;;;;;;28.20;12.00;;;;;;;1.78;40.60;101351.82;107784;1258;61276;-65
2023/01/11 12:23:20;;;;;;;22.80;10.10;;;;;;;1.56;40.78;101351.94;107897;1256;61987;-65
2023/01/11 12:26:02;;;;;;;26.50;10.10;;;;;;;1.62;40.66;101346.50;107929;1258;75038;-65
2023/01/11 12:28:35;;;;;;;28.30;10.60;;;;;;;1.52;40.22;101347.52;107834;1257;72437;-65
2023/01/11 12:31:23;;;;;;;27.80;10.70;;;;;;;1.66;40.08;101351.09;107857;1257;74140;-65
2023/01/11 12:33:59;;;;;;;25.00;10.70;;;;;;;1.89;39.94;101354.63;107896;1260;61193;-65
2023/01/11 12:36:32;;;;;;;19.50;9.10;;;;;;;1.98;39.41;101352.70;107952;1257;60974;-65
2023/01/11 12:39:28;;;;;;;21.10;9.10;;;;;;;1.78;39.39;101357.73;108019;1256;75187;-65
2023/01/11 12:41:58;;;;;;;47.90;13.90;;;;;;;1.66;39.47;101363.55;107866;1255;71240;-65
2023/01/11 12:44:43;;;;;;;24.10;10.10;;;;;;;1.57;39.60;101354.89;108055;1256;74952;-65
2023/01/11 12:47:48;;;;;;;22.70;6.60;;;;;;;1.68;39.72;101349.39;107946;1257;63302;-65
2023/01/11 12:50:23;;;;;;;32.60;10.30;;;;;;;1.69;39.83;101351.31;107996;1256;61184;-65
2023/01/11 12:53:02;;;;;;;21.00;7.90;;;;;;;1.73;40.42;101356.77;107939;1256;74195;-64
2023/01/11 12:55:42;;;;;;;29.10;10.90;;;;;;;1.83;40.15;101348.80;107909;1257;72713;-65
2023/01/11 12:58:21;;;;;;;30.60;10.30;;;;;;;2.04;39.42;101351.60;107924;1256;74952;-66
2023/01/11 13:01:11;;;;;;;27.20;9.90;;;;;;;2.38;38.74;101351.30;107948;1254;63139;-65
2023/01/11 13:04:09;;;;;;;33.90;11.70;;;;;;;2.24;38.58;101356.77;107969;1257;62296;-65
2023/01/11 13:06:44;;;;;;;21.30;8.20;;;;;;;2.16;38.77;101346.42;107961;1257;73534;-65
2023/01/11 13:10:01;;;;;;;28.50;10.60;;;;;;;2.05;39.02;101351.97;107915;1256;72427;-65
2023/01/11 13:12:30;;;;;;;27.20;11.20;;;;;;;2.26;38.61;101356.64;107754;1257;74238;-65
2023/01/11 13:14:56;;;;;;;35.30;12.30;;;;;;;2.14;38.80;101349.86;107890;1257;63286;-64
2023/01/11 13:17:30;;;;;;;45.30;13.10;;;;;;;2.15;38.66;101343.98;107998;1259;62442;-65
2023/01/11 13:20:19;;;;;;;50.60;15.30;;;;;;;2.01;38.77;101346.35;108040;1257;74040;-64
2023/01/11 13:22:49;;;;;;;25.10;9.40;;;;;;;2.15;38.73;101349.19;107997;1257;70443;-64
2023/01/11 13:25:18;;;;;;;27.00;10.80;;;;;;;2.13;38.76;101346.21;107933;1257;73530;-64
2023/01/11 13:27:45;;;;;;;23.10;10.20;;;;;;;2.39;39.05;101348.19;107942;1257;64004;-65
2023/01/11 13:30:13;;;;;;;27.20;11.50;;;;;;;2.58;38.55;101350.05;107724;1257;61071;-65
2023/01/11 13:32:42;;;;;;;18.60;8.50;;;;;;;2.80;37.77;101343.79;107887;1257;75135;-64
2023/01/11 13:35:20;;;;;;;36.10;11.90;;;;;;;2.63;38.11;101336.08;107895;1255;71282;-65
2023/01/11 13:38:23;;;;;;;38.00;11.90;;;;;;;2.32;38.08;101339.25;107800;1258;71242;-65
2023/01/11 13:40:55;;;;;;;24.20;8.80;;;;;;;2.12;38.77;101345.49;107790;1256;61313;-65
2023/01/11 13:43:39;;;;;;;37.10;12.40;;;;;;;1.97;38.85;101357.02;108040;1256;60487;-64
2023/01/11 13:46:35;;;;;;;37.80;10.30;;;;;;;1.87;38.91;101364.81;108001;1255;74005;-65
2023/01/11 13:49:23;;;;;;;44.20;12.20;;;;;;;2.13;38.80;101373.08;107662;1256;72698;-65
2023/01/11 13:52:04;;;;;;;35.50;11.90;;;;;;;2.34;38.63;101379.32;108008;1257;74885;-65
2023/01/11 13:54:55;;;;;;;34.00;11.80;;;;;;;2.30;38.70;101381.84;107759;1257;63241;-65
2023/01/11 13:57:33;;;;;;;32.60;10.60;;;;;;;2.33;38.95;101378.09;108013;1256;59271;-65
2023/01/11 14:00:19;;;;;;;39.00;12.80;;;;;;;2.31;38.70;101372.34;107942;1257;75162;-64
2023/01/11 14:03:25;;;;;;;47.80;14.20;;;;;;;2.23;38.64;101374.96;108003;1255;72305;-65
2023/01/11 14:06:22;;;;;;;31.30;11.60;;;;;;;1.94;38.95;101374.47;107946;1257;75107;-65
2023/01/11 14:08:56;;;;;;;26.00;10.00;;;;;;;1.42;39.46;101372.08;107831;1257;63210;-64
2023/01/11 14:11:36;;;;;;;29.80;11.60;;;;;;;1.77;40.12;101367.92;107920;1255;61606;-65
2023/01/11 14:14:28;;;;;;;25.00;9.10;;;;;;;2.29;39.10;101366.91;107933;1257;74593;-64
2023/01/11 14:17:37;;;;;;;31.50;9.20;;;;;;;2.01;38.88;101371.46;108060;1256;72576;-64
2023/01/11 14:20:25;;;;;;;23.90;9.20;;;;;;;2.20;39.20;101378.05;107783;1257;74184;-65
2023/01/11 14:22:58;;;;;;;11.50;5.40;;;;;;;2.00;39.51;101385.83;108097;1256;63228;-64
2023/01/11 14:25:44;;;;;;;20.80;9.90;;;;;;;2.10;39.40;101383.42;108008;1256;61641;-64
2023/01/11 14:28:14;;;;;;;23.90;9.90;;;;;;;2.14;39.08;101382.79;108058;1256;74963;-65
2023/01/11 14:31:05;;;;;;;26.20;10.50;;;;;;;2.01;38.80;101383.77;108016;1257;71343;-65
2023/01/11 14:33:40;;;;;;;25.90;10.10;;;;;;;2.06;39.03;101375.02;108067;1257;73801;-65
2023/01/11 14:36:41;;;;;;;30.60;8.40;;;;;;;1.94;39.60;101371.00;108069;1257;63400;-64
2023/01/11 20:06:20;;;;;;;33.90;12.70;;;;;;;-2.90;72.22;101269.80;105515;1284;613257;-64
2023/01/11 20:08:49;;;;;;;34.10;14.00;;;;;;;-1.00;64.84;101267.43;107125;1265;111785;-68
2023/01/11 20:11:17;;;;;;;38.20;13.20;;;;;;;-0.71;64.34;101266.86;107260;1266;61330;-66
2023/01/11 20:13:49;;;;;;;25.30;11.10;;;;;;;-0.05;62.78;101261.31;107522;1260;74090;-65
2023/01/11 20:16:18;;;;;;;31.40;12.50;;;;;;;0.36;59.74;101256.55;107452;1262;71159;-66
2023/01/11 20:18:55;;;;;;;30.90;13.80;;;;;;;0.65;58.17;101255.15;107554;1260;72848;-66
2023/01/11 20:21:23;;;;;;;31.50;13.30;;;;;;;1.17;56.84;101253.59;107452;1260;62240;-66
2023/01/11 20:23:50;;;;;;;34.20;13.20;;;;;;;1.48;54.37;101248.63;107513;1266;60950;-66
2023/01/11 20:26:17;;;;;;;31.90;12.90;;;;;;;1.91;52.58;101245.20;107504;1260;74153;-66
2023/01/11 20:28:53;;;;;;;32.80;13.30;;;;;;;1.74;49.39;101243.71;107489;1261;72885;-67
2023/01/11 20:31:20;;;;;;;31.50;13.90;;;;;;;1.56;48.63;101238.02;107533;1263;74836;-66
2023/01/11 20:33:47;;;;;;;38.40;14.10;;;;;;;0.42;50.43;101238.36;107479;1260;63160;-66
2023/01/11 20:36:16;;;;;;;28.10;12.60;;;;;;;0.38;50.29;101231.23;107467;1260;62230;-66
2023/01/11 20:38:44;;;;;;;29.20;12.90;;;;;;;0.29;50.49;101231.88;107515;1260;72346;-66
2023/01/11 20:44:04;;;;;;;31.50;12.30;;;;;;;-0.70;52.32;101244.29;107535;1262;73722;-66
2023/01/11 20:46:32;;;;;;;29.40;12.80;;;;;;;-0.79;52.84;101239.41;107478;1260;63170;-66
2023/01/11 20:48:59;;;;;;;35.70;13.50;;;;;;;-0.89;53.64;101242.22;107479;1261;62129;-67
2023/01/11 20:51:26;;;;;;;29.60;12.50;;;;;;;-0.57;52.70;101237.92;107541;1260;75106;-66
2023/01/11 20:53:53;;;;;;;23.70;11.10;;;;;;;-0.38;52.36;101238.91;107894;1256;72477;-65
2023/01/11 20:56:20;;;;;;;33.10;14.70;;;;;;;-0.61;52.80;101237.44;107748;1256;74882;-66
2023/01/11 20:58:47;;;;;;;34.30;12.80;;;;;;;-0.24;52.30;101231.65;107884;1257;61796;-67
2023/01/11 21:01:15;;;;;;;30.00;12.90;;;;;;;-0.00;51.69;101225.33;107846;1257;60417;-66
2023/01/11 21:03:42;;;;;;;37.60;15.80;;;;;;;0.04;51.47;101224.38;107914;1256;72209;-65
2023/01/11 21:06:10;;;;;;;32.00;12.10;;;;;;;0.20;51.44;101223.03;107905;1257;72359;-64
2023/01/11 21:08:37;;;;;;;41.00;16.80;;;;;;;0.20;51.30;101222.19;107784;1256;74259;-66
2023/01/11 21:11:04;;;;;;;37.30;15.20;;;;;;;0.05;51.16;101227.35;107783;1258;63207;-64
2023/01/11 21:13:31;;;;;;;34.60;14.10;;;;;;;0.10;51.97;101228.33;107749;1257;62666;-66
2023/01/11 21:16:29;;;;;;;52.50;26.40;;;;;;;0.05;52.62;101229.59;107629;1257;70921;-65
2023/01/11 21:18:58;;;;;;;46.30;18.90;;;;;;;0.10;51.87;101228.17;107494;1257;71403;-66
2023/01/11 21:21:25;;;;;;;124.50;32.40;;;;;;;-0.24;52.63;101228.36;107579;1259;72856;-64
2023/01/11 21:23:54;;;;;;;87.20;28.20;;;;;;;-0.17;52.01;101222.69;107660;1257;63395;-66
2023/01/11 21:26:21;;;;;;;56.70;20.70;;;;;;;-0.37;52.66;101230.12;107681;1257;61254;-65
2023/01/11 21:28:57;;;;;;;45.00;18.00;;;;;;;-0.29;52.23;101227.92;107692;1257;73995;-66
2023/01/11 21:31:29;;;;;;;45.30;18.80;;;;;;;-0.39;52.67;101231.81;107641;1262;69949;-66
2023/01/11 21:33:56;;;;;;;54.80;20.10;;;;;;;-0.23;52.36;101232.89;107679;1259;73621;-66
2023/01/11 21:36:24;;;;;;;62.80;20.20;;;;;;;0.01;51.95;101230.55;107663;1257;62495;-64
2023/01/11 21:38:52;;;;;;;48.70;18.20;;;;;;;0.23;51.63;101232.77;107668;1257;62183;-65
2023/01/11 21:44:06;;;;;;;114.80;36.30;;;;;;;0.20;51.84;101246.70;107618;1257;71728;-66
2023/01/11 21:46:33;;;;;;;132.60;37.40;;;;;;;0.34;52.21;101245.98;107612;1257;74549;-65
2023/01/11 21:49:00;;;;;;;177.60;52.10;;;;;;;0.43;51.97;101239.63;107615;1257;63327;-65
2023/01/11 21:51:28;;;;;;;79.90;27.70;;;;;;;0.50;51.60;101240.98;107597;1257;62540;-66
2023/01/11 21:53:56;;;;;;;71.30;26.40;;;;;;;0.67;51.37;101240.30;107579;1264;75057;-66
2023/01/11 21:56:23;;;;;;;79.60;25.40;;;;;;;0.63;51.18;101234.69;107591;1257;71125;-66
2023/01/11 21:58:50;;;;;;;39.90;16.30;;;;;;;0.47;51.61;101235.21;107714;1260;73755;-66
2023/01/11 22:01:21;;;;;;;48.00;18.70;;;;;;;0.67;50.62;101231.84;107627;1257;62187;-66
2023/01/11 22:03:50;;;;;;;73.80;22.10;;;;;;;0.60;50.22;101229.11;107779;1257;62280;-66
2023/01/11 22:06:17;;;;;;;48.40;18.70;;;;;;;0.44;50.19;101225.81;107723;1257;75397;-66
2023/01/11 22:08:44;;;;;;;152.40;36.00;;;;;;;0.17;50.65;101223.50;107750;1257;72499;-65
2023/01/11 22:11:13;;;;;;;157.40;36.10;;;;;;;0.11;50.67;101222.51;107608;1257;75074;-66
2023/01/11 22:13:39;;;;;;;52.60;20.10;;;;;;;0.02;51.05;101225.55;107673;1257;62100;-66
2023/01/11 23:58:42;;;;;;;45.80;17.90;;;;;;;-6.22;100.00;101203.94;107072;1276;612997;-63
